Time;durP1;ratioP1;P1;durP2;ratioP2;P2;SDS_P1;SDS_P2;PMS_P1;PMS_P2;Temp;Humidity;BMP_temperature;BMP_pressure;BME280_temperature;BME280_humidity;BME280_pressure;Samples;Min_cycle;Max_cycle;Signal;HPM_P1;HPM_P2
2022/11/30 00:00:56;;;;;;;;;28.50;27.00;;;;;10.16;68.78;101800.94;4812359;29;45439;-72
2022/11/30 00:03:27;;;;;;;;;23.00;19.00;;;;;10.34;68.95;101823.81;4826385;29;45413;-72
2022/11/30 00:05:53;;;;;;;;;29.00;26.25;;;;;9.92;69.26;101763.03;4823821;29;45563;-71
2022/11/30 00:08:33;;;;;;;;;;;;;;;;;;;;;
2022/11/30 00:10:59;;;;;;;;;26.00;23.25;;;;;10.29;69.33;101815.88;4827159;29;68686;-71
2022/11/30 00:13:24;;;;;;;;;31.25;28.25;;;;;10.25;69.21;101806.13;4827986;29;45311;-72
2022/11/30 00:15:49;;;;;;;;;30.25;23.00;;;;;10.32;69.23;101810.53;4811180;29;45445;-71
2022/11/30 00:18:16;;;;;;;;;32.00;27.75;;;;;10.32;68.88;101812.28;4822615;29;45431;-71
2022/11/30 00:20:42;;;;;;;;;24.50;24.00;;;;;10.29;68.91;101809.63;4825973;29;45410;-72
2022/11/30 00:23:08;;;;;;;;;28.25;24.75;;;;;10.31;69.23;101814.06;4829592;29;45571;-72
2022/11/30 00:25:35;;;;;;;;;30.50;26.75;;;;;10.31;69.47;101808.72;4812666;29;45518;-71
2022/11/30 00:28:01;;;;;;;;;34.75;27.00;;;;;10.25;69.50;101791.91;4811490;29;45523;-71
2022/11/30 00:30:26;;;;;;;;;30.00;26.00;;;;;10.35;69.50;101799.78;4823188;29;45382;-71
2022/11/30 00:32:56;;;;;;;;;27.00;25.00;;;;;10.42;69.29;101808.59;4820039;29;45375;-71
2022/11/30 00:35:22;;;;;;;;;23.75;23.00;;;;;10.38;69.29;101797.06;4810151;29;46115;-72
2022/11/30 00:37:47;;;;;;;;;28.00;24.00;;;;;10.33;69.21;101798.06;4811199;29;46449;-71
2022/11/30 00:40:13;;;;;;;;;27.75;25.50;;;;;10.28;68.90;101798.09;4814441;29;48840;-71
2022/11/30 00:42:38;;;;;;;;;25.00;23.25;;;;;10.28;69.04;101797.22;4794729;29;45720;-71
2022/11/30 00:45:04;;;;;;;;;31.00;28.25;;;;;10.28;68.92;101800.75;4818073;29;45431;-72
2022/11/30 00:47:29;;;;;;;;;30.00;26.75;;;;;10.18;69.29;101794.66;4810377;29;45405;-71
2022/11/30 00:49:54;;;;;;;;;32.50;28.50;;;;;10.22;69.02;101799.97;4818456;29;45787;-72
2022/11/30 00:52:20;;;;;;;;;27.50;25.00;;;;;10.15;69.53;101805.38;4828747;29;45680;-72
2022/11/30 00:54:45;;;;;;;;;29.25;28.75;;;;;10.16;69.72;101800.94;4819335;29;46109;-72
2022/11/30 00:57:10;;;;;;;;;24.25;22.50;;;;;10.14;69.62;101784.94;4814399;29;50120;-71
2022/11/30 00:59:35;;;;;;;;;28.50;24.25;;;;;10.09;69.29;101792.13;4794981;29;45577;-71
2022/11/30 01:02:01;;;;;;;;;32.00;25.50;;;;;10.11;69.59;101797.44;4821290;29;55147;-71
2022/11/30 01:04:26;;;;;;;;;28.75;24.50;;;;;10.07;68.99;101798.38;4812089;29;46212;-72
2022/11/30 01:06:51;;;;;;;;;30.00;26.75;;;;;9.99;69.29;101791.38;4823877;29;47166;-72
2022/11/30 01:09:17;;;;;;;;;26.50;25.75;;;;;9.99;69.31;101794.03;4814832;29;45409;-72
2022/11/30 01:11:42;;;;;;;;;25.25;23.00;;;;;10.01;69.41;101796.69;4829138;29;49129;-71
2022/11/30 01:14:07;;;;;;;;;23.75;17.00;;;;;10.00;69.49;101805.56;4826458;29;46027;-72
2022/11/30 01:16:33;;;;;;;;;27.00;24.50;;;;;10.01;69.59;101802.91;4828952;29;52888;-71
2022/11/30 01:18:59;;;;;;;;;24.25;23.25;;;;;10.04;70.10;101806.41;4794850;29;45336;-72
2022/11/30 01:21:27;;;;;;;;;25.75;22.25;;;;;10.10;69.58;101798.34;4822229;29;45263;-71
2022/11/30 01:23:53;;;;;;;;;31.25;27.00;;;;;10.09;69.50;101800.13;4825769;29;46401;-71
2022/11/30 01:26:19;;;;;;;;;27.75;25.00;;;;;10.11;69.52;101806.31;4810793;29;45408;-71
2022/11/30 01:28:52;;;;;;;;;29.00;24.75;;;;;10.14;70.02;101797.38;4810748;29;45418;-71
2022/11/30 01:31:18;;;;;;;;;20.75;19.75;;;;;10.07;69.52;101791.25;4824618;29;45729;-71
2022/11/30 01:33:52;;;;;;;;;30.50;27.25;;;;;10.10;69.38;101796.53;4813633;29;45355;-71
2022/11/30 01:36:22;;;;;;;;;26.75;24.50;;;;;9.95;69.50;101780.75;4802005;29;45402;-71
2022/11/30 01:38:50;;;;;;;;;28.25;23.25;;;;;10.02;69.15;101803.78;4810546;29;45412;-71
2022/11/30 01:41:42;;;;;;;;;29.75;25.75;;;;;9.99;69.44;101810.03;4813550;29;45832;-72
2022/11/30 01:44:13;;;;;;;;;24.75;22.00;;;;;9.95;69.11;101802.09;4810688;29;46022;-71
2022/11/30 01:46:48;;;;;;;;;24.75;21.75;;;;;9.93;69.38;101801.22;4822437;29;45664;-71
2022/11/30 01:49:17;;;;;;;;;26.50;23.50;;;;;9.88;69.87;101798.63;4813889;29;45366;-71
2022/11/30 01:51:46;;;;;;;;;29.25;24.75;;;;;9.93;69.38;101802.09;4828148;29;45431;-71
2022/11/30 01:54:15;;;;;;;;;25.00;20.75;;;;;9.90;69.77;101803.94;4816059;29;45395;-71
2022/11/30 01:56:54;;;;;;;;;25.25;23.00;;;;;9.89;69.19;101788.81;4815501;29;45358;-71
2022/11/30 01:59:21;;;;;;;;;26.50;22.75;;;;;9.94;69.01;101803.88;4811579;29;45495;-71
2022/11/30 02:01:47;;;;;;;;;27.75;22.50;;;;;9.95;69.51;101804.75;4820097;29;45550;-71
2022/11/30 02:04:22;;;;;;;;;23.00;21.25;;;;;9.99;69.54;101807.38;4809850;29;45520;-71
2022/11/30 02:06:48;;;;;;;;;27.00;23.75;;;;;10.02;69.47;101804.66;4822637;29;45551;-71
2022/11/30 02:09:16;;;;;;;;;23.25;21.00;;;;;10.02;68.87;101799.34;4812649;29;45409;-72
2022/11/30 02:11:42;;;;;;;;;22.00;19.50;;;;;10.03;68.83;101797.53;4810120;29;45482;-71
2022/11/30 02:14:10;;;;;;;;;15.50;14.75;;;;;9.97;68.23;101798.53;4806993;29;47993;-71
2022/11/30 02:16:50;;;;;;;;;21.50;20.50;;;;;9.94;68.86;101798.56;4804247;29;45445;-72
2022/11/30 02:19:45;;;;;;;;;20.50;16.00;;;;;9.91;68.83;101803.91;4808827;29;45268;-72
2022/11/30 02:22:35;;;;;;;;;19.75;18.75;;;;;9.85;68.67;101790.66;4827011;29;45352;-72
2022/11/30 02:25:26;;;;;;;;;25.25;22.75;;;;;9.96;68.79;101809.19;4826318;29;45692;-72
2022/11/30 02:28:11;;;;;;;;;15.75;14.00;;;;;9.91;68.62;101800.38;4793474;29;45386;-72
2022/11/30 02:30:41;;;;;;;;;21.25;15.75;;;;;9.86;68.01;101804.91;4824600;29;45338;-71
2022/11/30 02:33:18;;;;;;;;;20.25;18.00;;;;;9.83;68.50;101812.00;4799936;29;46018;-72
2022/11/30 02:35:49;;;;;;;;;20.50;16.50;;;;;9.84;68.72;101807.56;4799575;29;48179;-71
2022/11/30 02:38:17;;;;;;;;;29.25;21.75;;;;;9.83;68.54;101812.00;4809464;29;45357;-71
2022/11/30 02:40:43;;;;;;;;;16.50;16.50;;;;;9.74;68.44;101801.47;4801235;29;45456;-72
2022/11/30 02:43:08;;;;;;;;;21.50;19.50;;;;;9.79;68.67;101804.09;4821826;29;45379;-71
2022/11/30 02:45:43;;;;;;;;;27.25;21.00;;;;;9.81;68.81;101804.94;4814237;29;46152;-72
2022/11/30 02:48:12;;;;;;;;;28.00;22.50;;;;;9.74;68.61;101806.81;4809439;29;45767;-72
2022/11/30 02:50:53;;;;;;;;;21.00;20.75;;;;;9.64;68.48;101794.47;4824593;29;45352;-71
2022/11/30 02:53:19;;;;;;;;;26.00;21.75;;;;;9.64;68.83;101791.81;4821525;29;45880;-71
2022/11/30 02:55:45;;;;;;;;;23.25;21.50;;;;;9.58;69.15;101784.75;4814044;29;45486;-71
2022/11/30 02:58:11;;;;;;;;;19.50;19.25;;;;;9.64;69.24;101792.69;4805251;29;45873;-72
2022/11/30 03:00:36;;;;;;;;;28.00;21.50;;;;;9.59;68.84;101794.53;4824748;29;45376;-72
2022/11/30 03:03:02;;;;;;;;;20.75;19.00;;;;;9.59;69.43;101805.19;4807531;29;45304;-72
2022/11/30 03:05:27;;;;;;;;;20.25;18.00;;;;;9.54;69.05;101798.13;4811678;29;45957;-72
2022/11/30 03:07:53;;;;;;;;;14.00;12.75;;;;;9.51;69.29;101806.19;4821568;29;45251;-71
2022/11/30 03:10:18;;;;;;;;;18.75;15.75;;;;;9.37;69.15;101801.88;4821888;29;45415;-71
2022/11/30 03:12:43;;;;;;;;;22.25;19.00;;;;;9.44;68.87;101816.03;4814221;29;45849;-72
2022/11/30 03:15:09;;;;;;;;;10.25;9.25;;;;;9.36;68.93;101800.09;4809095;29;53421;-71
2022/11/30 03:17:34;;;;;;;;;9.00;9.00;;;;;9.33;69.37;101799.25;4815264;29;45372;-71
2022/11/30 03:20:00;;;;;;;;;14.25;12.50;;;;;9.39;68.98;101816.06;4825221;29;45517;-72
2022/11/30 03:22:25;;;;;;;;;18.25;16.00;;;;;9.40;68.68;101819.59;4825166;29;45368;-71
2022/11/30 03:24:50;;;;;;;;;15.50;15.25;;;;;9.34;68.79;101817.00;4823118;29;45796;-71
2022/11/30 03:27:16;;;;;;;;;20.50;17.25;;;;;9.28;69.26;101817.94;4808939;29;52505;-72
2022/11/30 03:29:41;;;;;;;;;20.25;14.25;;;;;9.28;69.17;101821.50;4816845;29;45383;-72
2022/11/30 03:32:06;;;;;;;;;14.00;12.00;;;;;9.26;69.27;101804.63;4810707;29;45515;-71
2022/11/30 03:34:32;;;;;;;;;21.00;16.75;;;;;9.32;69.17;101816.13;4826027;29;47164;-71
2022/11/30 03:36:58;;;;;;;;;18.75;18.75;;;;;9.26;69.15;101817.97;4806441;29;45707;-72
2022/11/30 03:39:24;;;;;;;;;13.75;12.75;;;;;9.22;69.16;101821.56;4797388;29;45509;-72
2022/11/30 03:41:50;;;;;;;;;16.25;15.50;;;;;9.23;69.18;101827.75;4808825;29;45843;-71
2022/11/30 03:44:16;;;;;;;;;14.25;13.50;;;;;9.21;69.57;101827.78;4812716;29;46280;-71
2022/11/30 03:46:41;;;;;;;;;10.00;9.00;;;;;9.24;69.81;101833.09;4811755;29;46083;-72
2022/11/30 03:49:07;;;;;;;;;19.00;17.75;;;;;9.23;69.56;101833.97;4815057;29;45416;-72
2022/11/30 03:51:32;;;;;;;;;16.25;16.25;;;;;9.17;69.38;101827.81;4827833;29;45255;-72
2022/11/30 03:53:58;;;;;;;;;19.75;17.25;;;;;9.13;69.33;101832.28;4820671;29;45381;-71
2022/11/30 03:56:23;;;;;;;;;14.50;14.00;;;;;9.16;69.71;101842.06;4821208;29;45441;-71
2022/11/30 03:58:48;;;;;;;;;17.75;14.75;;;;;9.07;69.44;101835.00;4820152;29;45522;-72
2022/11/30 04:01:18;;;;;;;;;20.25;13.50;;;;;9.12;69.57;101843.88;4825714;29;45447;-71
2022/11/30 04:03:43;;;;;;;;;12.50;12.50;;;;;9.08;69.67;101844.78;4811544;29;45414;-72
2022/11/30 04:06:11;;;;;;;;;11.00;9.25;;;;;9.10;69.90;101856.28;4819497;29;45730;-72
2022/11/30 04:08:37;;;;;;;;;9.00;9.00;;;;;9.05;69.41;101855.44;4819228;29;45399;-71
2022/11/30 04:11:04;;;;;;;;;8.00;8.00;;;;;8.94;69.45;101850.22;4812328;29;45462;-71
2022/11/30 04:13:31;;;;;;;;;6.75;6.75;;;;;8.96;69.52;101868.84;4828117;29;46381;-72
2022/11/30 04:15:57;;;;;;;;;8.00;6.50;;;;;8.95;69.85;101861.75;4795576;29;45667;-71
2022/11/30 04:18:24;;;;;;;;;9.00;6.00;;;;;8.94;69.80;101868.84;4811717;29;45395;-71
2022/11/30 04:20:51;;;;;;;;;5.50;5.50;;;;;8.92;69.92;101856.44;4826826;29;45618;-72
2022/11/30 04:23:17;;;;;;;;;7.50;7.25;;;;;8.85;69.37;101867.16;4826674;29;45640;-71
2022/11/30 04:25:42;;;;;;;;;6.75;6.75;;;;;8.82;69.59;101869.84;4823905;29;45264;-71
2022/11/30 04:28:08;;;;;;;;;8.00;6.00;;;;;8.78;69.56;101873.41;4811675;29;45417;-72
2022/11/30 04:30:35;;;;;;;;;7.00;7.00;;;;;8.77;69.90;101876.06;4824028;29;46198;-72
2022/11/30 04:33:01;;;;;;;;;6.50;6.50;;;;;8.77;69.89;101874.31;4810122;29;47170;-72
2022/11/30 04:35:27;;;;;;;;;6.00;3.50;;;;;8.73;69.56;101874.34;4827115;29;45341;-71
2022/11/30 04:37:52;;;;;;;;;8.25;7.25;;;;;8.62;69.57;101866.41;4818734;29;45526;-72
2022/11/30 04:40:17;;;;;;;;;6.50;4.00;;;;;8.60;69.82;101879.72;4821416;29;45552;-72
2022/11/30 04:42:43;;;;;;;;;6.00;4.00;;;;;8.51;69.89;101867.34;4818677;29;46038;-72
2022/11/30 04:45:10;;;;;;;;;9.00;7.00;;;;;8.56;70.09;101883.31;4823390;29;45582;-72
2022/11/30 04:47:36;;;;;;;;;6.25;4.50;;;;;8.52;70.25;101879.78;4829613;29;45444;-71
2022/11/30 04:50:02;;;;;;;;;7.75;5.00;;;;;8.53;69.65;101875.34;4819870;29;45511;-72
2022/11/30 04:52:27;;;;;;;;;7.00;6.00;;;;;8.55;69.89;101894.84;4818100;29;45332;-72
2022/11/30 04:54:53;;;;;;;;;9.50;3.00;;;;;8.49;69.85;101893.09;4809511;29;54892;-72
2022/11/30 04:57:18;;;;;;;;;7.00;6.75;;;;;8.45;70.03;101904.66;4814972;29;45416;-72
2022/11/30 04:59:43;;;;;;;;;7.25;7.25;;;;;8.34;70.10;101891.38;4816450;29;45658;-71
2022/11/30 05:02:08;;;;;;;;;8.25;4.50;;;;;8.38;70.19;101892.22;4817919;29;45579;-71
2022/11/30 05:04:34;;;;;;;;;9.50;7.00;;;;;8.39;70.08;101903.78;4810599;29;45479;-72
2022/11/30 05:06:59;;;;;;;;;7.50;7.50;;;;;8.37;70.32;101894.88;4825256;29;45300;-72
2022/11/30 05:09:24;;;;;;;;;6.25;6.25;;;;;8.35;70.24;101901.13;4814580;29;45229;-72
2022/11/30 05:11:50;;;;;;;;;8.25;8.25;;;;;8.28;70.14;101882.53;4829333;29;45717;-71
2022/11/30 05:14:15;;;;;;;;;6.50;6.50;;;;;8.27;70.13;101891.38;4818045;29;45357;-71
2022/11/30 05:16:40;;;;;;;;;8.00;7.75;;;;;8.23;70.10;101887.84;4820754;29;45471;-71
2022/11/30 05:19:06;;;;;;;;;6.75;6.75;;;;;8.11;70.12;101872.84;4823834;29;47189;-71
2022/11/30 05:21:31;;;;;;;;;7.00;7.00;;;;;8.12;70.02;101890.56;4828978;29;46306;-71
2022/11/30 05:23:57;;;;;;;;;7.00;4.25;;;;;8.07;70.33;101875.50;4826632;29;45365;-72
2022/11/30 05:26:22;;;;;;;;;6.50;6.50;;;;;8.07;70.00;101881.75;4817807;29;45369;-72
2022/11/30 05:28:47;;;;;;;;;4.00;4.00;;;;;8.09;70.11;101887.06;4810653;29;45729;-71
2022/11/30 05:31:13;;;;;;;;;10.75;6.00;;;;;8.07;70.10;101894.13;4801008;29;48172;-72
2022/11/30 05:33:38;;;;;;;;;4.25;0.50;;;;;7.98;70.07;101887.97;4811359;29;45543;-71
2022/11/30 05:36:03;;;;;;;;;10.00;8.25;;;;;7.88;69.97;101866.72;4828954;29;45311;-71
2022/11/30 05:38:29;;;;;;;;;4.25;4.25;;;;;7.92;70.44;101884.44;4796500;29;45571;-71
2022/11/30 05:41:01;;;;;;;;;3.00;3.00;;;;;7.96;70.34;101883.53;4824587;29;45489;-71
2022/11/30 05:43:27;;;;;;;;;3.75;3.75;;;;;7.97;70.50;101880.88;4797408;29;45715;-71
2022/11/30 05:45:59;;;;;;;;;5.50;5.25;;;;;7.98;70.39;101879.09;4818410;29;45360;-71
2022/11/30 05:48:24;;;;;;;;;3.75;3.75;;;;;8.07;70.31;101884.41;4822265;29;45473;-71
2022/11/30 05:50:50;;;;;;;;;6.25;6.00;;;;;8.07;70.37;101884.41;4807257;29;47269;-71
2022/11/30 05:53:15;;;;;;;;;3.00;3.00;;;;;8.07;70.78;101879.06;4794623;29;55460;-71
2022/11/30 05:55:41;;;;;;;;;9.25;5.75;;;;;8.09;70.54;101873.75;4820796;29;45584;-71
2022/11/30 05:58:06;;;;;;;;;9.50;5.50;;;;;8.13;70.74;101873.72;4823286;29;45365;-71
2022/11/30 06:00:31;;;;;;;;;7.50;3.00;;;;;8.16;70.88;101875.50;4819389;29;45586;-71
2022/11/30 06:02:57;;;;;;;;;8.75;7.75;;;;;8.16;70.87;101871.03;4817544;29;45428;-71
2022/11/30 06:05:23;;;;;;;;;7.00;6.00;;;;;8.15;70.86;101863.97;4812808;29;45776;-71
2022/11/30 06:07:48;;;;;;;;;8.00;6.00;;;;;8.22;70.45;101864.84;4811473;29;45498;-72
2022/11/30 06:10:13;;;;;;;;;7.50;6.00;;;;;8.26;70.30;101861.25;4814290;29;46195;-74
2022/11/30 06:12:39;;;;;;;;;8.25;8.25;;;;;8.34;70.69;101878.06;4813832;29;45343;-74
2022/11/30 06:15:05;;;;;;;;;7.00;7.00;;;;;8.42;70.36;101877.13;4813973;29;45340;-74
2022/11/30 06:17:30;;;;;;;;;7.75;6.00;;;;;8.43;70.43;101863.84;4823613;29;45308;-74
2022/11/30 06:19:56;;;;;;;;;11.25;9.00;;;;;8.46;70.33;101862.97;4814677;29;45405;-75
2022/11/30 06:22:21;;;;;;;;;7.00;7.00;;;;;8.48;70.37;101858.50;4820333;29;50573;-72
2022/11/30 06:24:46;;;;;;;;;8.75;8.00;;;;;8.56;70.57;101863.81;4813871;29;45475;-72
2022/11/30 06:27:11;;;;;;;;;9.00;6.00;;;;;8.53;70.25;101851.38;4824226;29;51958;-72
2022/11/30 06:29:37;;;;;;;;;11.00;9.50;;;;;8.57;70.32;101855.81;4824120;29;45469;-72
2022/11/30 06:32:05;;;;;;;;;10.25;10.25;;;;;8.63;70.27;101865.53;4813515;29;45472;-72
2022/11/30 06:34:31;;;;;;;;;12.00;11.75;;;;;8.60;70.39;101865.53;4809835;29;45560;-72
2022/11/30 06:36:56;;;;;;;;;10.50;8.75;;;;;8.63;70.25;101869.06;4793097;29;45509;-71
2022/11/30 06:39:22;;;;;;;;;8.50;8.50;;;;;8.67;69.95;101877.91;4797196;29;47409;-72
2022/11/30 06:41:47;;;;;;;;;8.00;6.50;;;;;8.55;69.95;101873.53;4809179;29;45338;-72
2022/11/30 06:44:12;;;;;;;;;7.00;7.00;;;;;8.61;70.26;101883.28;4810730;29;46467;-72
2022/11/30 06:46:37;;;;;;;;;15.00;6.75;;;;;8.64;70.22;101877.94;4818102;29;45436;-72
2022/11/30 06:49:03;;;;;;;;;11.50;9.00;;;;;8.64;70.31;101876.16;4811045;29;45357;-72
2022/11/30 06:51:28;;;;;;;;;9.00;7.75;;;;;8.64;70.12;101872.63;4815910;29;45460;-72
2022/11/30 06:53:54;;;;;;;;;11.25;11.00;;;;;8.68;70.09;101879.69;4800645;29;45470;-72
2022/11/30 06:56:19;;;;;;;;;14.25;8.00;;;;;8.65;70.01;101880.59;4816504;29;45395;-73
2022/11/30 06:58:45;;;;;;;;;13.75;12.00;;;;;8.69;69.98;101885.00;4808434;29;47060;-73
2022/11/30 07:01:13;;;;;;;;;12.25;12.00;;;;;8.71;69.91;101893.84;4798179;29;45432;-74
2022/11/30 07:03:40;;;;;;;;;17.50;14.50;;;;;8.51;69.84;101856.72;4826521;29;45463;-73
2022/11/30 07:06:13;;;;;;;;;11.25;9.00;;;;;8.70;70.02;101885.88;4825386;29;45628;-73
2022/11/30 07:08:40;;;;;;;;;16.50;13.75;;;;;8.56;70.40;101877.09;4820802;29;45438;-75
2022/11/30 07:11:07;;;;;;;;;12.75;12.75;;;;;8.62;70.22;101872.63;4818911;29;45613;-74
2022/11/30 07:13:33;;;;;;;;;13.75;11.75;;;;;8.53;70.10;101878.00;4806402;29;45357;-74
2022/11/30 07:15:58;;;;;;;;;13.00;13.00;;;;;8.52;70.08;101858.50;4822707;29;45433;-72
2022/11/30 07:18:23;;;;;;;;;11.25;11.25;;;;;8.72;70.32;101889.44;4821658;29;51056;-73
2022/11/30 07:20:49;;;;;;;;;15.25;15.00;;;;;8.71;70.27;101885.00;4810586;29;45319;-72
2022/11/30 07:26:07;;;;;;;;;12.50;11.00;;;;;8.84;69.98;101896.47;4825040;29;45462;-73
2022/11/30 07:28:38;;;;;;;;;19.50;14.00;;;;;8.84;69.86;101902.66;4822243;29;45394;-73
2022/11/30 07:31:16;;;;;;;;;17.75;13.75;;;;;8.74;69.88;101889.41;4817950;29;45506;-74
2022/11/30 07:33:41;;;;;;;;;15.75;15.75;;;;;8.74;70.04;101906.28;4819823;29;45493;-73
2022/11/30 07:36:07;;;;;;;;;18.75;14.75;;;;;8.80;69.95;101913.31;4809874;29;45468;-71
2022/11/30 07:38:33;;;;;;;;;11.00;9.00;;;;;8.70;69.97;101907.16;4814586;29;48419;-72
2022/11/30 07:40:58;;;;;;;;;18.50;14.00;;;;;8.72;69.88;101924.03;4825973;29;45431;-71
2022/11/30 07:43:23;;;;;;;;;17.50;13.00;;;;;8.73;70.22;101901.81;4816148;29;45914;-72
2022/11/30 07:45:52;;;;;;;;;15.75;14.00;;;;;8.79;70.23;101925.75;4819488;29;45473;-74
2022/11/30 07:48:19;;;;;;;;;28.00;18.00;;;;;8.80;69.96;101934.63;4827182;29;46584;-73
2022/11/30 07:50:44;;;;;;;;;17.75;17.25;;;;;8.74;70.19;101926.66;4805613;29;45662;-73
2022/11/30 07:53:10;;;;;;;;;19.75;15.50;;;;;8.65;70.33;101916.97;4829270;29;45493;-73
2022/11/30 07:55:36;;;;;;;;;18.75;18.00;;;;;8.76;70.43;101933.75;4826382;29;49276;-72
2022/11/30 07:58:01;;;;;;;;;17.50;12.25;;;;;8.76;69.97;101932.88;4814065;29;45523;-72
2022/11/30 08:00:26;;;;;;;;;18.00;18.00;;;;;8.74;69.96;101930.22;4821380;29;45412;-72
2022/11/30 08:02:51;;;;;;;;;19.00;15.00;;;;;8.76;69.69;101933.75;4815884;29;45367;-73
2022/11/30 08:05:17;;;;;;;;;12.00;11.50;;;;;8.76;69.68;101941.75;4820967;29;45579;-72
2022/11/30 08:07:44;;;;;;;;;14.75;13.00;;;;;8.78;70.05;101947.06;4811449;29;47277;-72
2022/11/30 08:10:10;;;;;;;;;17.00;13.00;;;;;8.75;70.21;101934.66;4826853;29;45521;-72
2022/11/30 08:12:35;;;;;;;;;17.75;14.00;;;;;8.82;70.06;101949.72;4831213;29;45451;-72
2022/11/30 08:15:00;;;;;;;;;19.50;15.25;;;;;8.79;69.53;101952.38;4811543;29;45686;-72
2022/11/30 08:17:26;;;;;;;;;18.25;14.50;;;;;8.78;69.84;101950.59;4811535;29;47144;-72
2022/11/30 08:19:51;;;;;;;;;14.00;13.50;;;;;8.72;69.87;101948.00;4828171;29;48839;-72
2022/11/30 08:22:16;;;;;;;;;15.25;10.00;;;;;8.67;69.79;101940.03;4829399;29;45409;-72
2022/11/30 08:24:42;;;;;;;;;13.25;8.00;;;;;8.70;69.96;101950.66;4835361;29;45286;-70
2022/11/30 08:27:07;;;;;;;;;12.50;12.00;;;;;8.77;70.03;101958.59;4832349;29;47267;-71
2022/11/30 08:29:32;;;;;;;;;19.00;13.00;;;;;8.81;70.00;101955.91;4826184;29;45263;-72
2022/11/30 08:31:57;;;;;;;;;18.75;17.00;;;;;8.81;69.86;101960.38;4824417;29;51986;-73
2022/11/30 08:34:23;;;;;;;;;18.25;13.25;;;;;8.80;70.42;101947.94;4832015;29;45341;-72
2022/11/30 08:36:48;;;;;;;;;14.75;14.50;;;;;8.86;70.84;101959.44;4828836;29;46500;-71
2022/11/30 08:39:13;;;;;;;;;19.75;19.25;;;;;8.82;70.30;101952.38;4827129;29;45326;-71
2022/11/30 08:41:39;;;;;;;;;19.25;17.00;;;;;8.79;70.15;101962.16;4823299;29;45464;-70
2022/11/30 08:44:04;;;;;;;;;22.25;18.50;;;;;8.73;69.93;101971.03;4807366;29;45716;-72
2022/11/30 08:46:30;;;;;;;;;22.25;17.50;;;;;8.71;70.33;101960.41;4836675;29;45503;-72
2022/11/30 08:48:56;;;;;;;;;17.75;15.75;;;;;8.72;70.42;101958.66;4809653;29;45420;-72
2022/11/30 08:51:21;;;;;;;;;14.00;13.00;;;;;8.79;70.82;101964.81;4797948;29;45466;-71
2022/11/30 08:53:47;;;;;;;;;19.25;15.25;;;;;8.76;70.23;101952.41;4807400;29;45433;-72
2022/11/30 08:56:16;;;;;;;;;15.50;13.75;;;;;8.81;70.41;101961.25;4793961;29;48208;-71
2022/11/30 08:58:41;;;;;;;;;18.50;17.75;;;;;8.72;70.41;101953.31;4798197;29;45335;-69
2022/11/30 09:01:25;;;;;;;;;17.75;15.00;;;;;8.76;70.07;101965.72;4804264;29;45400;-71
2022/11/30 09:03:53;;;;;;;;;18.25;18.25;;;;;8.73;70.27;101956.88;4802766;29;45421;-70
2022/11/30 09:06:28;;;;;;;;;20.75;18.75;;;;;8.66;70.47;101958.66;4808164;29;45339;-70
2022/11/30 09:08:56;;;;;;;;;10.50;7.75;;;;;8.61;70.59;101944.50;4793628;29;45363;-70
2022/11/30 09:11:28;;;;;;;;;24.50;23.50;;;;;8.77;70.56;101970.16;4812517;29;45508;-70
2022/11/30 09:13:56;;;;;;;;;19.50;15.00;;;;;8.78;70.23;101973.69;4805718;29;45532;-70
2022/11/30 09:16:22;;;;;;;;;18.75;17.50;;;;;8.75;70.32;101971.91;4808006;29;45405;-69
2022/11/30 09:18:49;;;;;;;;;20.75;17.25;;;;;8.79;70.35;101976.34;4805142;29;45489;-69
2022/11/30 09:21:19;;;;;;;;;25.00;22.25;;;;;8.76;70.19;101972.81;4811146;29;45663;-69
2022/11/30 09:23:45;;;;;;;;;17.75;16.00;;;;;8.79;70.47;101973.69;4810547;29;45329;-69
2022/11/30 09:26:13;;;;;;;;;20.75;19.00;;;;;8.81;70.37;101977.22;4796781;29;47128;-70
2022/11/30 09:28:39;;;;;;;;;22.50;19.50;;;;;8.84;70.74;101979.00;4775782;29;45865;-69
2022/11/30 09:31:17;;;;;;;;;21.25;14.50;;;;;8.86;70.42;101978.06;4795140;29;45774;-69
2022/11/30 09:33:43;;;;;;;;;20.00;18.75;;;;;8.86;70.32;101982.53;4805486;29;45552;-69
2022/11/30 09:36:11;;;;;;;;;24.25;18.25;;;;;8.86;70.17;101988.72;4809716;29;45906;-67
2022/11/30 09:38:37;;;;;;;;;24.50;19.75;;;;;8.88;70.15;101989.59;4775779;29;45401;-67
2022/11/30 09:41:31;;;;;;;;;20.50;19.00;;;;;8.86;70.28;101983.41;4810211;29;45646;-68
2022/11/30 09:44:20;;;;;;;;;27.75;19.50;;;;;8.94;70.31;101982.47;4792865;29;45382;-75
2022/11/30 09:47:01;;;;;;;;;24.75;20.50;;;;;9.02;70.19;101985.97;4806770;29;45534;-70
2022/11/30 09:49:36;;;;;;;;;23.25;18.25;;;;;9.01;70.09;101978.91;4817333;29;45522;-70
2022/11/30 09:52:04;;;;;;;;;20.00;20.00;;;;;9.01;70.25;101973.56;4826978;29;45344;-71
2022/11/30 09:54:37;;;;;;;;;23.00;20.50;;;;;9.04;70.33;101984.22;4820906;29;45412;-72
2022/11/30 09:57:23;;;;;;;;;18.50;15.75;;;;;9.06;69.64;101983.28;4814743;29;45893;-71
2022/11/30 09:59:55;;;;;;;;;22.50;19.50;;;;;9.05;69.77;101980.63;4827004;29;45404;-71
2022/11/30 10:02:30;;;;;;;;;25.25;22.25;;;;;9.04;69.49;101970.88;4818540;29;45814;-71
2022/11/30 10:04:56;;;;;;;;;21.75;20.25;;;;;9.02;69.91;101964.66;4828339;29;45710;-71
2022/11/30 10:07:42;;;;;;;;;28.00;24.25;;;;;9.13;69.64;101980.59;4829174;29;46052;-71
2022/11/30 10:10:31;;;;;;;;;24.75;21.75;;;;;9.16;69.80;101978.78;4812053;29;45502;-71
2022/11/30 10:13:18;;;;;;;;;23.50;21.00;;;;;9.25;70.00;101972.50;4826874;29;45431;-71
2022/11/30 10:16:12;;;;;;;;;24.25;21.75;;;;;9.29;69.61;101982.25;4833145;29;46129;-72
2022/11/30 10:19:02;;;;;;;;;24.75;22.50;;;;;9.32;69.48;101976.91;4817082;29;45450;-71
2022/11/30 10:21:44;;;;;;;;;25.25;23.50;;;;;9.30;69.67;101964.47;4826994;29;45467;-71
2022/11/30 10:24:35;;;;;;;;;24.75;24.25;;;;;9.33;69.56;101973.34;4826737;29;45589;-71
2022/11/30 10:27:11;;;;;;;;;25.00;18.75;;;;;9.30;69.67;101976.00;4827016;29;45443;-71
2022/11/30 10:29:41;;;;;;;;;30.25;23.50;;;;;9.33;69.83;101965.34;4812971;29;45519;-71
2022/11/30 10:32:19;;;;;;;;;25.50;24.00;;;;;9.34;69.34;101961.78;4809689;29;45957;-71
2022/11/30 10:34:52;;;;;;;;;24.25;21.75;;;;;9.32;68.76;101960.03;4826560;29;45463;-71
2022/11/30 10:37:31;;;;;;;;;23.50;19.50;;;;;9.39;69.17;101975.09;4827009;29;45480;-71
2022/11/30 10:40:08;;;;;;;;;23.50;20.00;;;;;9.43;69.67;101971.50;4824505;29;46173;-71
2022/11/30 10:42:43;;;;;;;;;23.50;23.50;;;;;9.34;69.77;101947.56;4809472;29;45382;-71
2022/11/30 10:45:21;;;;;;;;;21.50;20.25;;;;;9.51;69.40;101958.97;4828005;29;45690;-71
2022/11/30 10:48:15;;;;;;;;;22.00;20.50;;;;;9.61;69.47;101965.13;4816445;29;46133;-71
2022/11/30 10:50:41;;;;;;;;;20.25;19.25;;;;;9.61;69.16;101951.78;4815192;29;45613;-71
2022/11/30 10:53:10;;;;;;;;;22.25;20.25;;;;;9.70;69.46;101959.69;4818284;29;45553;-71
2022/11/30 10:55:41;;;;;;;;;20.50;17.00;;;;;9.71;68.88;101950.81;4823046;29;45349;-71
2022/11/30 10:58:25;;;;;;;;;22.75;20.75;;;;;9.76;68.80;101940.97;4827530;29;45354;-71
2022/11/30 11:01:27;;;;;;;;;27.25;22.25;;;;;9.84;69.41;101948.91;4816255;29;46237;-71
2022/11/30 11:04:08;;;;;;;;;25.25;21.75;;;;;9.85;68.94;101945.31;4810039;29;45297;-71
2022/11/30 11:06:35;;;;;;;;;25.75;24.25;;;;;9.87;68.89;101945.31;4812205;29;45558;-71
2022/11/30 11:09:30;;;;;;;;;28.00;23.75;;;;;9.87;68.91;101948.84;4825085;29;45601;-71
2022/11/30 11:11:59;;;;;;;;;34.75;27.50;;;;;9.81;68.65;101938.28;4827411;29;45590;-70
2022/11/30 11:14:26;;;;;;;;;26.50;22.75;;;;;9.84;68.95;101938.25;4797088;29;45615;-71
2022/11/30 11:16:53;;;;;;;;;27.75;22.75;;;;;9.93;68.58;101946.13;4831265;29;45486;-71
2022/11/30 11:19:37;;;;;;;;;22.00;22.00;;;;;9.89;68.29;101935.50;4811832;29;45470;-71
2022/11/30 11:22:24;;;;;;;;;19.25;19.25;;;;;9.96;68.27;101943.44;4826720;29;45460;-71
2022/11/30 11:24:54;;;;;;;;;29.25;25.00;;;;;9.92;68.26;101924.81;4821224;29;45892;-71
2022/11/30 11:27:27;;;;;;;;;30.00;25.75;;;;;10.01;68.48;101938.94;4827472;29;45417;-71
2022/11/30 11:30:04;;;;;;;;;24.75;24.75;;;;;10.04;68.32;101942.47;4818628;29;45619;-71
2022/11/30 11:32:30;;;;;;;;;24.75;24.75;;;;;10.09;67.95;101945.97;4823141;29;46454;-71